National Weather Service Raw Text Product

Displaying AFOS PIL: TAFFOD Received: 2017-08-13 15:56 UTC


160 
FTUS43 KDMX 131556 AAA
TAFFOD
TAF AMD
KFOD 131556Z 1316/1412 18004KT P6SM VCSH SCT060 OVC100
     FM131900 16010KT P6SM SCT070 BKN090
     FM140000 15008KT P6SM VCTS SCT060CB BKN100
     FM140500 14006KT P6SM BKN050=